sensor_id;sensor_type;location;lat;lon;timestamp;pressure;altitude;pressure_sealevel;temperature;humidity
73918;BME280;63639;52.280;5.162;2022-12-07T00:01:18;101967.58;;;9.97;62.64
73918;BME280;63639;52.280;5.162;2022-12-07T00:03:47;101961.89;;;9.94;62.81
73918;BME280;63639;52.280;5.162;2022-12-07T00:06:16;101962.23;;;9.91;62.91
73918;BME280;63639;52.280;5.162;2022-12-07T00:08:44;101960.85;;;9.84;63.08
73918;BME280;63639;52.280;5.162;2022-12-07T00:11:13;101959.28;;;9.82;63.32
73918;BME280;63639;52.280;5.162;2022-12-07T00:13:41;101959.95;;;9.82;63.78
73918;BME280;63639;52.280;5.162;2022-12-07T00:16:10;101957.21;;;9.89;63.46
73918;BME280;63639;52.280;5.162;2022-12-07T00:18:39;101954.02;;;9.94;63.26
73918;BME280;63639;52.280;5.162;2022-12-07T00:21:08;101954.32;;;9.97;62.62
73918;BME280;63639;52.280;5.162;2022-12-07T00:23:36;101951.10;;;9.95;62.26
73918;BME280;63639;52.280;5.162;2022-12-07T00:26:05;101948.47;;;9.93;61.82
73918;BME280;63639;52.280;5.162;2022-12-07T00:28:32;101947.05;;;9.89;62.16
73918;BME280;63639;52.280;5.162;2022-12-07T00:31:01;101945.01;;;9.87;62.23
73918;BME280;63639;52.280;5.162;2022-12-07T00:33:27;101946.01;;;9.84;62.09
73918;BME280;63639;52.280;5.162;2022-12-07T00:35:55;101940.02;;;9.81;61.85
73918;BME280;63639;52.280;5.162;2022-12-07T00:38:22;101937.97;;;9.76;62.21
73918;BME280;63639;52.280;5.162;2022-12-07T00:40:54;101932.94;;;9.76;61.86
73918;BME280;63639;52.280;5.162;2022-12-07T00:43:21;101929.75;;;9.75;62.10
73918;BME280;63639;52.280;5.162;2022-12-07T00:45:48;101926.08;;;9.74;62.11
73918;BME280;63639;52.280;5.162;2022-12-07T00:48:15;101931.38;;;9.76;61.43
73918;BME280;63639;52.280;5.162;2022-12-07T00:50:42;101932.78;;;9.72;61.79
73918;BME280;63639;52.280;5.162;2022-12-07T00:53:08;101931.96;;;9.67;61.97
73918;BME280;63639;52.280;5.162;2022-12-07T00:55:36;101927.86;;;9.65;61.91
73918;BME280;63639;52.280;5.162;2022-12-07T00:58:04;101928.76;;;9.62;61.59
73918;BME280;63639;52.280;5.162;2022-12-07T01:00:30;101928.17;;;9.57;62.11
73918;BME280;63639;52.280;5.162;2022-12-07T01:02:57;101927.36;;;9.55;62.08
73918;BME280;63639;52.280;5.162;2022-12-07T01:05:24;101927.12;;;9.55;62.20
73918;BME280;63639;52.280;5.162;2022-12-07T01:07:51;101927.82;;;9.57;61.95
73918;BME280;63639;52.280;5.162;2022-12-07T01:10:18;101926.41;;;9.55;62.10
73918;BME280;63639;52.280;5.162;2022-12-07T01:12:45;101922.79;;;9.56;61.87
73918;BME280;63639;52.280;5.162;2022-12-07T01:15:12;101926.46;;;9.55;61.84
73918;BME280;63639;52.280;5.162;2022-12-07T01:17:38;101929.67;;;9.55;61.73
73918;BME280;63639;52.280;5.162;2022-12-07T01:20:07;101931.17;;;9.54;61.68
73918;BME280;63639;52.280;5.162;2022-12-07T01:22:36;101932.47;;;9.53;61.80
73918;BME280;63639;52.280;5.162;2022-12-07T01:25:04;101935.44;;;9.51;61.78
73918;BME280;63639;52.280;5.162;2022-12-07T01:27:32;101938.04;;;9.51;61.93
73918;BME280;63639;52.280;5.162;2022-12-07T01:29:59;101941.62;;;9.53;61.47
73918;BME280;63639;52.280;5.162;2022-12-07T01:32:26;101941.09;;;9.56;61.09
73918;BME280;63639;52.280;5.162;2022-12-07T01:34:53;101941.89;;;9.56;60.97
73918;BME280;63639;52.280;5.162;2022-12-07T01:37:20;101945.97;;;9.55;61.11
73918;BME280;63639;52.280;5.162;2022-12-07T01:39:48;101945.54;;;9.39;60.97
73918;BME280;63639;52.280;5.162;2022-12-07T01:42:16;101949.85;;;9.42;61.31
73918;BME280;63639;52.280;5.162;2022-12-07T01:45:48;101949.12;;;9.36;62.09
73918;BME280;63639;52.280;5.162;2022-12-07T01:48:17;101946.31;;;9.36;62.47
73918;BME280;63639;52.280;5.162;2022-12-07T01:50:48;101937.60;;;9.33;62.66
73918;BME280;63639;52.280;5.162;2022-12-07T01:53:17;101933.15;;;9.36;62.88
73918;BME280;63639;52.280;5.162;2022-12-07T01:55:47;101932.74;;;9.45;62.69
73918;BME280;63639;52.280;5.162;2022-12-07T01:58:16;101932.12;;;9.52;62.68
73918;BME280;63639;52.280;5.162;2022-12-07T02:02:02;101931.91;;;9.52;63.35
73918;BME280;63639;52.280;5.162;2022-12-07T02:04:31;101930.93;;;9.55;62.75
73918;BME280;63639;52.280;5.162;2022-12-07T02:06:57;101926.63;;;9.55;63.05
73918;BME280;63639;52.280;5.162;2022-12-07T02:09:24;101923.56;;;9.58;62.77
73918;BME280;63639;52.280;5.162;2022-12-07T02:11:52;101920.81;;;9.57;63.04
73918;BME280;63639;52.280;5.162;2022-12-07T02:14:20;101919.59;;;9.57;62.78
73918;BME280;63639;52.280;5.162;2022-12-07T02:16:54;101917.84;;;9.60;62.94
73918;BME280;63639;52.280;5.162;2022-12-07T02:20:00;101916.56;;;9.66;62.83
73918;BME280;63639;52.280;5.162;2022-12-07T02:22:49;101914.77;;;9.73;62.43
73918;BME280;63639;52.280;5.162;2022-12-07T02:25:27;101909.26;;;9.78;61.89
73918;BME280;63639;52.280;5.162;2022-12-07T02:28:02;101908.75;;;9.64;62.24
73918;BME280;63639;52.280;5.162;2022-12-07T02:30:34;101911.43;;;9.58;62.78
73918;BME280;63639;52.280;5.162;2022-12-07T02:33:05;101910.75;;;9.61;62.84
73918;BME280;63639;52.280;5.162;2022-12-07T02:35:38;101912.94;;;9.62;62.99
73918;BME280;63639;52.280;5.162;2022-12-07T02:38:12;101914.46;;;9.68;62.46
73918;BME280;63639;52.280;5.162;2022-12-07T02:40:43;101917.37;;;9.69;62.87
73918;BME280;63639;52.280;5.162;2022-12-07T02:43:17;101917.87;;;9.69;62.50
73918;BME280;63639;52.280;5.162;2022-12-07T02:45:47;101920.99;;;9.67;62.87
73918;BME280;63639;52.280;5.162;2022-12-07T02:48:16;101910.49;;;9.68;62.82
73918;BME280;63639;52.280;5.162;2022-12-07T02:50:44;101909.58;;;9.71;62.49
73918;BME280;63639;52.280;5.162;2022-12-07T02:53:28;101906.31;;;9.70;62.19
73918;BME280;63639;52.280;5.162;2022-12-07T02:55:55;101904.81;;;9.66;62.34
73918;BME280;63639;52.280;5.162;2022-12-07T02:58:30;101908.64;;;9.64;62.13
73918;BME280;63639;52.280;5.162;2022-12-07T03:01:07;101911.12;;;9.57;62.45
73918;BME280;63639;52.280;5.162;2022-12-07T03:03:39;101908.72;;;9.51;62.47
73918;BME280;63639;52.280;5.162;2022-12-07T03:06:15;101907.22;;;9.37;62.78
73918;BME280;63639;52.280;5.162;2022-12-07T03:08:52;101905.55;;;9.26;62.97
73918;BME280;63639;52.280;5.162;2022-12-07T03:11:28;101905.21;;;9.06;63.58
73918;BME280;63639;52.280;5.162;2022-12-07T03:14:00;101904.77;;;8.88;64.04
73918;BME280;63639;52.280;5.162;2022-12-07T03:16:33;101903.56;;;8.72;64.68
73918;BME280;63639;52.280;5.162;2022-12-07T03:19:03;101907.09;;;8.71;65.15
73918;BME280;63639;52.280;5.162;2022-12-07T03:21:38;101905.59;;;8.82;64.90
73918;BME280;63639;52.280;5.162;2022-12-07T03:24:08;101910.46;;;8.94;64.39
73918;BME280;63639;52.280;5.162;2022-12-07T03:26:39;101910.30;;;9.02;63.76
73918;BME280;63639;52.280;5.162;2022-12-07T03:29:11;101918.24;;;9.11;63.62
73918;BME280;63639;52.280;5.162;2022-12-07T03:31:41;101917.47;;;9.20;63.58
73918;BME280;63639;52.280;5.162;2022-12-07T03:34:15;101914.68;;;9.30;63.37
73918;BME280;63639;52.280;5.162;2022-12-07T03:36:47;101921.41;;;9.43;63.02
73918;BME280;63639;52.280;5.162;2022-12-07T03:39:22;101919.00;;;9.51;62.53
73918;BME280;63639;52.280;5.162;2022-12-07T03:41:52;101911.23;;;9.52;63.13
73918;BME280;63639;52.280;5.162;2022-12-07T03:44:20;101898.47;;;9.46;63.13
73918;BME280;63639;52.280;5.162;2022-12-07T03:46:52;101893.35;;;9.50;62.62
73918;BME280;63639;52.280;5.162;2022-12-07T03:49:24;101891.58;;;9.49;63.04
73918;BME280;63639;52.280;5.162;2022-12-07T03:51:55;101884.82;;;9.52;62.91
73918;BME280;63639;52.280;5.162;2022-12-07T03:54:28;101882.89;;;9.52;63.19
73918;BME280;63639;52.280;5.162;2022-12-07T03:56:58;101881.89;;;9.55;62.88
73918;BME280;63639;52.280;5.162;2022-12-07T03:59:26;101879.88;;;9.53;63.03
73918;BME280;63639;52.280;5.162;2022-12-07T04:01:54;101878.53;;;9.53;62.80
73918;BME280;63639;52.280;5.162;2022-12-07T04:04:22;101877.99;;;9.40;62.48
73918;BME280;63639;52.280;5.162;2022-12-07T04:06:49;101877.32;;;9.34;62.92
73918;BME280;63639;52.280;5.162;2022-12-07T04:09:16;101878.69;;;9.26;63.08
73918;BME280;63639;52.280;5.162;2022-12-07T04:11:43;101878.34;;;9.24;63.38
73918;BME280;63639;52.280;5.162;2022-12-07T04:14:10;101881.21;;;9.29;63.08
73918;BME280;63639;52.280;5.162;2022-12-07T04:16:37;101901.63;;;9.26;64.05
73918;BME280;63639;52.280;5.162;2022-12-07T04:19:04;101892.11;;;9.24;63.65
73918;BME280;63639;52.280;5.162;2022-12-07T04:21:31;101885.59;;;8.95;63.87
73918;BME280;63639;52.280;5.162;2022-12-07T04:23:58;101884.37;;;8.70;64.63
73918;BME280;63639;52.280;5.162;2022-12-07T04:26:25;101882.33;;;8.79;64.95
73918;BME280;63639;52.280;5.162;2022-12-07T04:28:52;101880.50;;;8.87;64.97
73918;BME280;63639;52.280;5.162;2022-12-07T04:31:19;101877.96;;;9.06;64.79
73918;BME280;63639;52.280;5.162;2022-12-07T04:33:46;101875.11;;;9.17;64.16
73918;BME280;63639;52.280;5.162;2022-12-07T04:36:12;101876.38;;;9.15;65.00
73918;BME280;63639;52.280;5.162;2022-12-07T04:38:39;101877.72;;;9.24;64.46
73918;BME280;63639;52.280;5.162;2022-12-07T04:41:12;101879.35;;;9.26;63.88
73918;BME280;63639;52.280;5.162;2022-12-07T04:43:39;101879.25;;;9.26;63.87
73918;BME280;63639;52.280;5.162;2022-12-07T04:46:05;101874.51;;;9.24;63.81
73918;BME280;63639;52.280;5.162;2022-12-07T04:48:32;101876.23;;;9.20;63.55
73918;BME280;63639;52.280;5.162;2022-12-07T04:51:00;101871.10;;;9.13;63.59
73918;BME280;63639;52.280;5.162;2022-12-07T04:53:26;101868.03;;;9.10;63.85
73918;BME280;63639;52.280;5.162;2022-12-07T04:55:53;101867.49;;;9.12;64.12
73918;BME280;63639;52.280;5.162;2022-12-07T04:58:20;101868.81;;;9.18;63.66
73918;BME280;63639;52.280;5.162;2022-12-07T05:00:54;101866.02;;;9.14;63.19
73918;BME280;63639;52.280;5.162;2022-12-07T05:03:20;101864.37;;;9.06;63.41
73918;BME280;63639;52.280;5.162;2022-12-07T05:05:52;101863.04;;;8.95;63.68
73918;BME280;63639;52.280;5.162;2022-12-07T05:08:20;101864.48;;;9.00;63.87
73918;BME280;63639;52.280;5.162;2022-12-07T05:10:48;101860.90;;;9.01;63.78
73918;BME280;63639;52.280;5.162;2022-12-07T05:13:17;101859.63;;;8.95;63.76
73918;BME280;63639;52.280;5.162;2022-12-07T05:15:44;101864.13;;;8.90;63.87
73918;BME280;63639;52.280;5.162;2022-12-07T05:18:11;101867.79;;;8.87;63.80
73918;BME280;63639;52.280;5.162;2022-12-07T05:20:38;101869.46;;;8.75;64.42
73918;BME280;63639;52.280;5.162;2022-12-07T05:23:05;101868.09;;;8.74;64.35
73918;BME280;63639;52.280;5.162;2022-12-07T05:25:32;101864.48;;;8.67;64.65
73918;BME280;63639;52.280;5.162;2022-12-07T05:27:59;101863.61;;;8.65;64.82
73918;BME280;63639;52.280;5.162;2022-12-07T05:30:26;101861.74;;;8.69;64.94
73918;BME280;63639;52.280;5.162;2022-12-07T05:32:53;101863.03;;;8.72;64.63
73918;BME280;63639;52.280;5.162;2022-12-07T05:35:19;101863.54;;;8.76;64.19
73918;BME280;63639;52.280;5.162;2022-12-07T05:37:46;101862.24;;;8.82;64.02
73918;BME280;63639;52.280;5.162;2022-12-07T05:40:14;101865.28;;;8.87;64.46
73918;BME280;63639;52.280;5.162;2022-12-07T05:42:41;101868.37;;;8.96;63.96
73918;BME280;63639;52.280;5.162;2022-12-07T05:45:09;101869.44;;;9.01;63.69
73918;BME280;63639;52.280;5.162;2022-12-07T05:47:36;101868.51;;;9.09;63.48
73918;BME280;63639;52.280;5.162;2022-12-07T05:50:05;101864.95;;;9.10;63.16
73918;BME280;63639;52.280;5.162;2022-12-07T05:52:32;101863.17;;;9.13;62.92
73918;BME280;63639;52.280;5.162;2022-12-07T05:54:59;101864.05;;;9.20;62.91
73918;BME280;63639;52.280;5.162;2022-12-07T05:57:26;101859.57;;;9.23;62.01
73918;BME280;63639;52.280;5.162;2022-12-07T05:59:53;101857.74;;;9.27;62.12
73918;BME280;63639;52.280;5.162;2022-12-07T06:02:20;101859.18;;;9.25;62.10
73918;BME280;63639;52.280;5.162;2022-12-07T06:04:47;101854.67;;;9.17;62.52
73918;BME280;63639;52.280;5.162;2022-12-07T06:07:16;101859.37;;;9.14;62.88
73918;BME280;63639;52.280;5.162;2022-12-07T06:09:43;101860.11;;;9.15;62.91
73918;BME280;63639;52.280;5.162;2022-12-07T06:12:11;101859.53;;;9.19;62.42
73918;BME280;63639;52.280;5.162;2022-12-07T06:14:38;101856.15;;;9.22;62.36
73918;BME280;63639;52.280;5.162;2022-12-07T06:17:06;101854.90;;;9.24;61.85
73918;BME280;63639;52.280;5.162;2022-12-07T06:19:33;101857.63;;;9.25;61.49
73918;BME280;63639;52.280;5.162;2022-12-07T06:22:01;101859.09;;;9.17;61.60
73918;BME280;63639;52.280;5.162;2022-12-07T06:24:28;101857.47;;;9.17;61.28
73918;BME280;63639;52.280;5.162;2022-12-07T06:26:55;101859.17;;;9.07;61.85
73918;BME280;63639;52.280;5.162;2022-12-07T06:29:22;101858.86;;;9.03;62.35
73918;BME280;63639;52.280;5.162;2022-12-07T06:31:49;101860.05;;;9.03;62.35
73918;BME280;63639;52.280;5.162;2022-12-07T06:34:17;101863.41;;;9.02;62.07
73918;BME280;63639;52.280;5.162;2022-12-07T06:36:44;101857.91;;;8.94;62.07
73918;BME280;63639;52.280;5.162;2022-12-07T06:39:11;101863.73;;;8.67;62.58
73918;BME280;63639;52.280;5.162;2022-12-07T06:41:38;101873.07;;;8.58;63.38
73918;BME280;63639;52.280;5.162;2022-12-07T06:44:06;101865.64;;;8.70;63.50
73918;BME280;63639;52.280;5.162;2022-12-07T06:46:33;101864.33;;;8.82;63.29
73918;BME280;63639;52.280;5.162;2022-12-07T06:49:00;101864.35;;;8.73;62.63
73918;BME280;63639;52.280;5.162;2022-12-07T06:51:27;101862.45;;;8.66;63.40
73918;BME280;63639;52.280;5.162;2022-12-07T06:53:54;101864.43;;;8.73;63.59
73918;BME280;63639;52.280;5.162;2022-12-07T06:56:21;101865.03;;;8.77;62.91
73918;BME280;63639;52.280;5.162;2022-12-07T06:58:48;101864.21;;;8.71;63.39
73918;BME280;63639;52.280;5.162;2022-12-07T07:01:16;101862.98;;;8.78;62.97
73918;BME280;63639;52.280;5.162;2022-12-07T07:03:44;101864.14;;;8.77;63.27
73918;BME280;63639;52.280;5.162;2022-12-07T07:06:12;101863.60;;;8.78;63.21
73918;BME280;63639;52.280;5.162;2022-12-07T07:08:40;101860.71;;;8.78;63.24
73918;BME280;63639;52.280;5.162;2022-12-07T07:11:08;101860.86;;;8.75;62.86
73918;BME280;63639;52.280;5.162;2022-12-07T07:13:35;101861.45;;;8.74;63.27
73918;BME280;63639;52.280;5.162;2022-12-07T07:16:02;101858.93;;;8.76;63.25
73918;BME280;63639;52.280;5.162;2022-12-07T07:18:29;101858.78;;;8.82;63.22
73918;BME280;63639;52.280;5.162;2022-12-07T07:20:56;101859.09;;;8.90;63.00
73918;BME280;63639;52.280;5.162;2022-12-07T07:23:23;101861.42;;;8.89;62.57
73918;BME280;63639;52.280;5.162;2022-12-07T07:25:50;101860.72;;;8.80;62.98
73918;BME280;63639;52.280;5.162;2022-12-07T07:28:17;101864.20;;;8.76;62.95
73918;BME280;63639;52.280;5.162;2022-12-07T07:30:44;101868.51;;;8.75;62.84
73918;BME280;63639;52.280;5.162;2022-12-07T07:33:12;101874.13;;;8.69;63.10
73918;BME280;63639;52.280;5.162;2022-12-07T07:35:38;101870.76;;;8.63;62.87
73918;BME280;63639;52.280;5.162;2022-12-07T07:38:06;101873.37;;;8.54;63.45
73918;BME280;63639;52.280;5.162;2022-12-07T07:40:33;101870.87;;;8.58;63.23
73918;BME280;63639;52.280;5.162;2022-12-07T07:43:00;101872.24;;;8.59;63.57
73918;BME280;63639;52.280;5.162;2022-12-07T07:45:27;101875.53;;;8.66;63.98
73918;BME280;63639;52.280;5.162;2022-12-07T07:47:54;101882.52;;;8.73;63.25
73918;BME280;63639;52.280;5.162;2022-12-07T07:50:21;101886.36;;;8.86;63.21
73918;BME280;63639;52.280;5.162;2022-12-07T07:52:49;101895.06;;;8.97;62.98
73918;BME280;63639;52.280;5.162;2022-12-07T07:55:16;101899.14;;;8.84;62.97
73918;BME280;63639;52.280;5.162;2022-12-07T07:57:43;101891.53;;;8.81;63.74
73918;BME280;63639;52.280;5.162;2022-12-07T08:00:13;101882.20;;;8.80;64.29
73918;BME280;63639;52.280;5.162;2022-12-07T08:02:41;101875.82;;;8.91;64.26
73918;BME280;63639;52.280;5.162;2022-12-07T08:05:09;101877.11;;;8.95;64.20
73918;BME280;63639;52.280;5.162;2022-12-07T08:07:35;101876.02;;;9.03;63.69
73918;BME280;63639;52.280;5.162;2022-12-07T08:10:03;101881.24;;;9.03;63.70
73918;BME280;63639;52.280;5.162;2022-12-07T08:12:30;101880.31;;;9.02;63.50
73918;BME280;63639;52.280;5.162;2022-12-07T08:14:57;101882.14;;;8.98;63.15
73918;BME280;63639;52.280;5.162;2022-12-07T08:17:24;101884.58;;;8.81;63.79
73918;BME280;63639;52.280;5.162;2022-12-07T08:19:51;101888.36;;;8.84;63.51
73918;BME280;63639;52.280;5.162;2022-12-07T08:22:18;101888.82;;;8.87;64.27
73918;BME280;63639;52.280;5.162;2022-12-07T08:24:45;101896.49;;;8.85;63.97
73918;BME280;63639;52.280;5.162;2022-12-07T08:27:11;101895.31;;;8.93;63.56
73918;BME280;63639;52.280;5.162;2022-12-07T08:29:38;101898.11;;;8.90;64.00
73918;BME280;63639;52.280;5.162;2022-12-07T08:32:05;101899.54;;;9.04;64.08
73918;BME280;63639;52.280;5.162;2022-12-07T08:34:32;101900.25;;;9.04;64.30
73918;BME280;63639;52.280;5.162;2022-12-07T08:36:59;101896.19;;;9.09;63.70
73918;BME280;63639;52.280;5.162;2022-12-07T08:39:26;101897.58;;;9.15;63.87
73918;BME280;63639;52.280;5.162;2022-12-07T08:41:52;101890.77;;;9.22;63.46
73918;BME280;63639;52.280;5.162;2022-12-07T08:44:19;101888.95;;;9.17;63.55
73918;BME280;63639;52.280;5.162;2022-12-07T08:46:48;101884.67;;;9.24;63.11
73918;BME280;63639;52.280;5.162;2022-12-07T08:49:19;101880.23;;;9.25;63.35
73918;BME280;63639;52.280;5.162;2022-12-07T08:51:48;101873.30;;;9.37;63.45
73918;BME280;63639;52.280;5.162;2022-12-07T08:54:16;101873.05;;;9.43;62.48
73918;BME280;63639;52.280;5.162;2022-12-07T08:56:44;101871.63;;;9.36;63.32
73918;BME280;63639;52.280;5.162;2022-12-07T08:59:13;101872.94;;;9.43;63.11
73918;BME280;63639;52.280;5.162;2022-12-07T09:01:41;101876.05;;;9.47;62.28
73918;BME280;63639;52.280;5.162;2022-12-07T09:04:08;101877.11;;;9.38;62.78
73918;BME280;63639;52.280;5.162;2022-12-07T09:06:35;101882.53;;;9.29;63.04
73918;BME280;63639;52.280;5.162;2022-12-07T09:09:03;101882.57;;;9.22;63.01
73918;BME280;63639;52.280;5.162;2022-12-07T09:11:30;101882.71;;;9.17;63.42
73918;BME280;63639;52.280;5.162;2022-12-07T09:13:57;101880.34;;;9.20;63.96
73918;BME280;63639;52.280;5.162;2022-12-07T09:16:24;101879.74;;;9.27;63.74
73918;BME280;63639;52.280;5.162;2022-12-07T09:18:51;101879.50;;;9.37;64.04
73918;BME280;63639;52.280;5.162;2022-12-07T09:21:18;101885.03;;;9.49;63.58
73918;BME280;63639;52.280;5.162;2022-12-07T09:23:45;101883.21;;;9.61;62.87
73918;BME280;63639;52.280;5.162;2022-12-07T09:26:12;101886.99;;;9.68;63.26
73918;BME280;63639;52.280;5.162;2022-12-07T09:28:39;101887.26;;;9.71;62.40
73918;BME280;63639;52.280;5.162;2022-12-07T09:31:06;101883.92;;;9.75;62.62
73918;BME280;63639;52.280;5.162;2022-12-07T09:33:32;101877.85;;;9.75;62.64
73918;BME280;63639;52.280;5.162;2022-12-07T09:35:59;101872.13;;;9.76;62.21
73918;BME280;63639;52.280;5.162;2022-12-07T09:38:26;101877.19;;;9.77;62.41
73918;BME280;63639;52.280;5.162;2022-12-07T09:40:54;101875.76;;;9.83;62.74
73918;BME280;63639;52.280;5.162;2022-12-07T09:43:23;101875.33;;;9.91;63.01
73918;BME280;63639;52.280;5.162;2022-12-07T09:45:53;101875.10;;;9.94;62.81
73918;BME280;63639;52.280;5.162;2022-12-07T09:48:24;101873.61;;;10.07;63.28
73918;BME280;63639;52.280;5.162;2022-12-07T09:50:53;101870.03;;;10.25;63.14
73918;BME280;63639;52.280;5.162;2022-12-07T09:53:25;101866.93;;;10.37;62.67
73918;BME280;63639;52.280;5.162;2022-12-07T09:55:54;101868.48;;;10.36;61.46
73918;BME280;63639;52.280;5.162;2022-12-07T09:58:23;101869.40;;;10.33;61.77
73918;BME280;63639;52.280;5.162;2022-12-07T10:00:53;101872.09;;;10.26;62.54
73918;BME280;63639;52.280;5.162;2022-12-07T10:03:22;101872.72;;;10.21;62.38
73918;BME280;63639;52.280;5.162;2022-12-07T10:05:51;101867.94;;;10.28;62.55
73918;BME280;63639;52.280;5.162;2022-12-07T10:08:18;101862.71;;;10.34;62.41
73918;BME280;63639;52.280;5.162;2022-12-07T10:10:51;101858.34;;;10.38;61.82
73918;BME280;63639;52.280;5.162;2022-12-07T10:13:20;101856.35;;;10.38;62.39
73918;BME280;63639;52.280;5.162;2022-12-07T10:15:50;101855.35;;;10.30;62.78
73918;BME280;63639;52.280;5.162;2022-12-07T10:18:21;101855.90;;;10.15;63.88
73918;BME280;63639;52.280;5.162;2022-12-07T10:20:48;101856.23;;;10.16;63.31
73918;BME280;63639;52.280;5.162;2022-12-07T10:23:16;101850.52;;;10.17;63.18
73918;BME280;63639;52.280;5.162;2022-12-07T10:25:44;101848.20;;;10.26;63.21
73918;BME280;63639;52.280;5.162;2022-12-07T10:28:15;101844.71;;;10.21;63.35
73918;BME280;63639;52.280;5.162;2022-12-07T10:30:49;101843.77;;;10.18;63.36
73918;BME280;63639;52.280;5.162;2022-12-07T10:33:34;101845.15;;;10.30;63.49
73918;BME280;63639;52.280;5.162;2022-12-07T10:36:18;101841.34;;;10.46;63.65
73918;BME280;63639;52.280;5.162;2022-12-07T10:38:47;101839.48;;;10.55;62.63
73918;BME280;63639;52.280;5.162;2022-12-07T10:41:15;101842.77;;;10.59;63.06
73918;BME280;63639;52.280;5.162;2022-12-07T10:43:51;101842.73;;;10.62;62.14
73918;BME280;63639;52.280;5.162;2022-12-07T10:46:32;101838.29;;;10.59;61.41
73918;BME280;63639;52.280;5.162;2022-12-07T10:49:21;101832.72;;;10.40;61.48
73918;BME280;63639;52.280;5.162;2022-12-07T10:51:58;101830.69;;;10.46;61.65
73918;BME280;63639;52.280;5.162;2022-12-07T10:54:37;101832.33;;;10.52;62.22
73918;BME280;63639;52.280;5.162;2022-12-07T10:57:19;101826.21;;;10.26;61.77
73918;BME280;63639;52.280;5.162;2022-12-07T10:59:58;101822.46;;;10.34;61.64
73918;BME280;63639;52.280;5.162;2022-12-07T11:02:41;101822.55;;;10.32;61.76
73918;BME280;63639;52.280;5.162;2022-12-07T11:05:18;101816.61;;;10.28;61.93
73918;BME280;63639;52.280;5.162;2022-12-07T11:07:55;101812.41;;;10.17;62.41
73918;BME280;63639;52.280;5.162;2022-12-07T11:10:32;101810.43;;;10.08;63.19
73918;BME280;63639;52.280;5.162;2022-12-07T11:13:18;101806.95;;;10.13;63.42
73918;BME280;63639;52.280;5.162;2022-12-07T11:15:57;101809.63;;;10.29;63.28
73918;BME280;63639;52.280;5.162;2022-12-07T11:18:32;101813.73;;;10.47;62.96
73918;BME280;63639;52.280;5.162;2022-12-07T11:21:09;101808.42;;;10.64;62.64
73918;BME280;63639;52.280;5.162;2022-12-07T11:23:48;101804.65;;;10.53;62.23
73918;BME280;63639;52.280;5.162;2022-12-07T11:26:27;101800.28;;;10.60;62.61
73918;BME280;63639;52.280;5.162;2022-12-07T11:29:14;101797.96;;;10.75;62.61
73918;BME280;63639;52.280;5.162;2022-12-07T11:31:59;101794.83;;;10.75;61.63
73918;BME280;63639;52.280;5.162;2022-12-07T11:34:37;101789.81;;;10.83;61.23
73918;BME280;63639;52.280;5.162;2022-12-07T11:37:09;101788.12;;;10.77;61.13
73918;BME280;63639;52.280;5.162;2022-12-07T11:39:41;101783.87;;;10.74;60.44
73918;BME280;63639;52.280;5.162;2022-12-07T11:42:15;101782.84;;;10.98;60.76
73918;BME280;63639;52.280;5.162;2022-12-07T11:44:50;101780.83;;;11.19;60.85
73918;BME280;63639;52.280;5.162;2022-12-07T11:47:26;101774.44;;;11.61;60.31
73918;BME280;63639;52.280;5.162;2022-12-07T11:50:01;101768.87;;;11.81;58.56
73918;BME280;63639;52.280;5.162;2022-12-07T11:52:43;101764.97;;;11.89;58.34
73918;BME280;63639;52.280;5.162;2022-12-07T11:55:19;101760.11;;;11.96;58.45
73918;BME280;63639;52.280;5.162;2022-12-07T11:57:54;101756.74;;;11.97;58.16
73918;BME280;63639;52.280;5.162;2022-12-07T12:00:24;101753.34;;;11.95;58.13
73918;BME280;63639;52.280;5.162;2022-12-07T12:02:57;101748.49;;;11.91;57.63
73918;BME280;63639;52.280;5.162;2022-12-07T12:05:26;101750.80;;;12.01;58.94
73918;BME280;63639;52.280;5.162;2022-12-07T12:07:59;101751.20;;;11.96;58.13
73918;BME280;63639;52.280;5.162;2022-12-07T12:10:38;101749.00;;;12.15;58.21
73918;BME280;63639;52.280;5.162;2022-12-07T12:13:20;101746.31;;;12.20;56.70
73918;BME280;63639;52.280;5.162;2022-12-07T12:16:04;101758.38;;;12.15;56.61
73918;BME280;63639;52.280;5.162;2022-12-07T12:18:56;101774.48;;;11.73;56.98
73918;BME280;63639;52.280;5.162;2022-12-07T12:21:28;101778.71;;;11.11;59.71
73918;BME280;63639;52.280;5.162;2022-12-07T12:23:59;101768.08;;;10.60;60.87
73918;BME280;63639;52.280;5.162;2022-12-07T12:26:29;101748.62;;;10.28;61.96
73918;BME280;63639;52.280;5.162;2022-12-07T12:28:59;101745.37;;;9.96;62.81
73918;BME280;63639;52.280;5.162;2022-12-07T12:31:33;101742.32;;;9.76;62.52
73918;BME280;63639;52.280;5.162;2022-12-07T12:34:03;101739.19;;;9.79;63.35
73918;BME280;63639;52.280;5.162;2022-12-07T12:36:45;101736.22;;;9.59;62.11
73918;BME280;63639;52.280;5.162;2022-12-07T12:39:14;101735.26;;;9.74;62.74
73918;BME280;63639;52.280;5.162;2022-12-07T12:42:00;101733.42;;;9.87;63.51
73918;BME280;63639;52.280;5.162;2022-12-07T12:45:32;101730.95;;;10.12;62.99
73918;BME280;63639;52.280;5.162;2022-12-07T12:47:58;101731.65;;;10.33;61.84
73918;BME280;63639;52.280;5.162;2022-12-07T12:50:28;101729.61;;;10.51;62.12
73918;BME280;63639;52.280;5.162;2022-12-07T12:53:01;101727.92;;;10.71;61.42
73918;BME280;63639;52.280;5.162;2022-12-07T12:55:52;101720.60;;;10.79;60.79
73918;BME280;63639;52.280;5.162;2022-12-07T12:58:34;101718.21;;;10.80;60.12
73918;BME280;63639;52.280;5.162;2022-12-07T13:02:16;101720.68;;;10.95;60.77
73918;BME280;63639;52.280;5.162;2022-12-07T13:04:52;101721.83;;;10.98;60.58
73918;BME280;63639;52.280;5.162;2022-12-07T13:07:56;101719.21;;;11.01;60.37
73918;BME280;63639;52.280;5.162;2022-12-07T13:10:33;101716.22;;;11.01;60.43
73918;BME280;63639;52.280;5.162;2022-12-07T13:13:03;101713.92;;;10.94;60.13
73918;BME280;63639;52.280;5.162;2022-12-07T13:15:33;101712.15;;;11.08;60.10
73918;BME280;63639;52.280;5.162;2022-12-07T13:18:04;101706.73;;;11.21;60.53